createdAt,value
2018-04-07T00:01:10.882Z,16.13
2018-04-07T00:03:38.339Z,12.63
2018-04-07T00:06:05.800Z,13.10
2018-04-07T00:08:33.306Z,11.10
2018-04-07T00:11:00.767Z,11.33
2018-04-07T00:13:28.246Z,15.83
2018-04-07T00:15:55.705Z,16.20
2018-04-07T00:18:23.162Z,13.70
2018-04-07T00:20:50.646Z,10.50
2018-04-07T00:23:18.099Z,13.70
2018-04-07T00:25:45.578Z,17.83
2018-04-07T00:28:13.052Z,12.33
2018-04-07T00:30:40.508Z,12.90
2018-04-07T00:33:07.984Z,13.07
2018-04-07T00:35:35.546Z,18.00
2018-04-07T00:38:03.014Z,13.00
2018-04-07T00:40:30.518Z,13.13
2018-04-07T00:42:57.991Z,12.60
2018-04-07T00:45:25.443Z,12.47
2018-04-07T00:47:52.957Z,15.77
2018-04-07T00:50:20.458Z,13.83
2018-04-07T00:52:55.825Z,10.87
2018-04-07T00:55:23.271Z,15.07
2018-04-07T00:57:50.732Z,12.23
2018-04-07T01:00:18.382Z,11.83
2018-04-07T01:02:45.844Z,14.00
2018-04-07T01:05:13.343Z,17.80
2018-04-07T01:07:40.855Z,17.40
2018-04-07T01:10:08.330Z,13.00
2018-04-07T01:12:35.803Z,12.63
2018-04-07T01:15:03.331Z,14.00
2018-04-07T01:17:30.791Z,11.27
2018-04-07T01:19:58.289Z,15.40
2018-04-07T01:22:25.755Z,15.53
2018-04-07T01:24:53.208Z,18.60
2018-04-07T01:27:20.697Z,13.33
2018-04-07T01:29:48.157Z,16.80
2018-04-07T01:32:15.639Z,12.40
2018-04-07T01:34:43.124Z,17.13
2018-04-07T01:37:10.584Z,17.27
2018-04-07T01:39:38.045Z,13.93
2018-04-07T01:42:05.657Z,18.40
2018-04-07T01:44:33.239Z,18.80
2018-04-07T01:47:00.804Z,19.53
2018-04-07T01:49:28.266Z,10.93
2018-04-07T01:51:55.732Z,12.67
2018-04-07T01:54:23.205Z,17.23
2018-04-07T01:56:50.675Z,15.80
2018-04-07T01:59:18.144Z,17.20
2018-04-07T02:01:45.603Z,17.30
2018-04-07T02:04:13.060Z,12.97
2018-04-07T02:06:40.721Z,17.40
2018-04-07T02:09:08.203Z,11.60
2018-04-07T02:11:35.753Z,12.87
2018-04-07T02:14:03.232Z,11.60
2018-04-07T02:16:30.697Z,12.30
2018-04-07T02:18:58.152Z,20.57
2018-04-07T02:21:25.619Z,18.40
2018-04-07T02:23:53.144Z,15.17
2018-04-07T02:26:20.624Z,12.90
2018-04-07T02:28:48.145Z,15.80
2018-04-07T02:31:15.604Z,13.90
2018-04-07T02:33:43.077Z,14.40
2018-04-07T02:36:10.567Z,18.40
2018-04-07T02:38:38.028Z,12.23
2018-04-07T02:41:05.500Z,15.33
2018-04-07T02:43:32.967Z,17.80
2018-04-07T02:46:00.417Z,14.97
2018-04-07T02:48:27.901Z,19.40
2018-04-07T02:50:55.365Z,12.73
2018-04-07T02:53:22.821Z,17.17
2018-04-07T02:55:50.284Z,15.27
2018-04-07T02:58:17.736Z,16.27
2018-04-07T03:00:45.195Z,13.60
2018-04-07T03:03:12.656Z,11.43
2018-04-07T03:05:40.111Z,11.87
2018-04-07T03:08:07.593Z,21.80
2018-04-07T03:10:35.190Z,15.73
2018-04-07T03:13:02.645Z,12.47
2018-04-07T03:15:30.123Z,12.87
2018-04-07T03:17:57.587Z,15.57
2018-04-07T03:20:25.064Z,11.97
2018-04-07T03:22:52.566Z,13.50
2018-04-07T03:25:20.035Z,19.00
2018-04-07T03:27:47.491Z,14.23
2018-04-07T03:30:14.968Z,24.10
2018-04-07T03:32:42.477Z,15.40
2018-04-07T03:35:09.947Z,15.80
2018-04-07T03:37:37.412Z,14.37
2018-04-07T03:40:04.873Z,17.17
2018-04-07T03:42:32.352Z,17.53
2018-04-07T03:44:59.811Z,14.47
2018-04-07T03:47:27.267Z,13.73
2018-04-07T03:49:54.736Z,19.50
2018-04-07T03:52:22.199Z,18.03
2018-04-07T03:54:49.677Z,18.47
2018-04-07T03:57:17.152Z,18.60
2018-04-07T03:59:44.681Z,16.60
2018-04-07T04:02:12.149Z,22.80
2018-04-07T04:04:39.837Z,20.80
2018-04-07T04:07:07.383Z,13.83
2018-04-07T04:09:34.835Z,17.97
2018-04-07T04:12:02.333Z,23.93
2018-04-07T04:14:29.789Z,22.17
2018-04-07T04:16:57.260Z,17.93
2018-04-07T04:19:24.732Z,17.63
2018-04-07T04:21:53.651Z,20.03
2018-04-07T04:24:21.164Z,20.17
2018-04-07T04:26:48.623Z,13.13
2018-04-07T04:29:16.084Z,17.73
2018-04-07T04:31:43.556Z,20.80
2018-04-07T04:34:11.016Z,13.70
2018-04-07T04:36:38.481Z,20.20
2018-04-07T04:39:05.988Z,20.57
2018-04-07T04:41:34.142Z,20.93
2018-04-07T04:44:01.596Z,15.23
2018-04-07T04:46:29.059Z,18.83
2018-04-07T04:48:56.542Z,13.80
2018-04-07T04:51:24.018Z,18.27
2018-04-07T04:53:51.476Z,13.43
2018-04-07T04:56:19.078Z,16.20
2018-04-07T04:58:46.548Z,16.37
2018-04-07T05:01:14.011Z,20.53
2018-04-07T05:03:41.504Z,16.70
2018-04-07T05:06:08.984Z,23.63
2018-04-07T05:08:36.455Z,16.03
2018-04-07T05:11:03.941Z,18.70
2018-04-07T05:13:31.391Z,16.80
2018-04-07T05:15:58.893Z,19.17
2018-04-07T05:18:26.361Z,17.50
2018-04-07T05:20:53.817Z,18.97
2018-04-07T05:23:21.292Z,16.50
2018-04-07T05:25:49.998Z,16.50
2018-04-07T05:28:17.463Z,18.17
2018-04-07T05:30:45.018Z,18.53
2018-04-07T05:33:12.489Z,20.30
2018-04-07T05:35:39.962Z,21.40
2018-04-07T05:38:07.464Z,17.40
2018-04-07T05:40:34.928Z,20.73
2018-04-07T05:43:02.411Z,18.43
2018-04-07T05:45:29.927Z,17.67
2018-04-07T05:47:58.020Z,18.50
2018-04-07T05:50:25.491Z,21.80
2018-04-07T05:52:52.972Z,18.70
2018-04-07T05:55:20.502Z,23.23
2018-04-07T05:57:47.981Z,22.77
2018-04-07T06:00:15.464Z,22.07
2018-04-07T06:02:42.942Z,15.13
2018-04-07T06:05:10.467Z,18.07
2018-04-07T06:07:37.984Z,19.37
2018-04-07T06:10:06.592Z,18.37
2018-04-07T06:12:34.069Z,20.67
2018-04-07T06:15:01.545Z,20.67
2018-04-07T06:17:29.024Z,20.73
2018-04-07T06:19:56.485Z,22.47
2018-04-07T06:22:23.949Z,23.10
2018-04-07T06:24:51.432Z,23.50
2018-04-07T06:27:18.908Z,20.63
2018-04-07T06:29:46.380Z,22.73
2018-04-07T06:32:13.839Z,23.57
2018-04-07T06:34:41.364Z,21.57
2018-04-07T06:37:08.842Z,25.70
2018-04-07T06:39:36.319Z,30.27
2018-04-07T06:42:03.818Z,26.03
2018-04-07T06:44:31.360Z,23.73
2018-04-07T06:46:58.848Z,28.83
2018-04-07T06:49:26.324Z,22.10
2018-04-07T06:51:53.795Z,23.00
2018-04-07T06:54:21.300Z,28.37
2018-04-07T06:56:48.851Z,20.13
2018-04-07T06:59:16.320Z,26.53
2018-04-07T07:01:43.814Z,20.07
2018-04-07T07:04:11.292Z,31.37
2018-04-07T07:06:38.770Z,28.80
2018-04-07T07:09:06.330Z,33.70
2018-04-07T07:11:33.838Z,27.97
2018-04-07T07:14:01.309Z,26.50
2018-04-07T07:16:28.802Z,27.17
2018-04-07T07:18:56.332Z,29.27
2018-04-07T07:21:23.837Z,25.10
2018-04-07T07:23:51.320Z,26.90
2018-04-07T07:26:18.821Z,31.30
2018-04-07T07:28:46.729Z,29.53
2018-04-07T07:31:14.267Z,34.30
2018-04-07T07:33:41.785Z,27.67
2018-04-07T07:36:09.262Z,34.17
2018-04-07T07:38:36.790Z,27.80
2018-04-07T07:41:04.265Z,28.43
2018-04-07T07:43:31.776Z,28.63
2018-04-07T07:45:59.304Z,29.50
2018-04-07T07:48:26.769Z,28.80
2018-04-07T07:50:54.376Z,27.83
2018-04-07T07:53:21.920Z,28.33
2018-04-07T07:55:49.435Z,25.80
2018-04-07T07:58:16.936Z,39.47
2018-04-07T08:00:44.429Z,27.40
2018-04-07T08:03:12.064Z,29.53
2018-04-07T08:05:39.615Z,28.70
2018-04-07T08:08:07.131Z,20.60
2018-04-07T08:10:34.726Z,24.20
2018-04-07T08:13:02.258Z,29.73
2018-04-07T08:15:29.837Z,25.67
2018-04-07T08:17:57.332Z,24.63
2018-04-07T08:20:24.886Z,22.43
2018-04-07T08:22:52.375Z,21.33
2018-04-07T08:25:19.870Z,19.63
2018-04-07T08:27:47.366Z,26.30
2018-04-07T08:30:14.912Z,26.27
2018-04-07T08:32:42.404Z,20.73
2018-04-07T08:35:09.908Z,34.07
2018-04-07T08:37:37.510Z,18.90
2018-04-07T08:40:05.010Z,20.47
2018-04-07T08:42:32.502Z,17.20
2018-04-07T08:45:00.003Z,18.10
2018-04-07T08:47:27.478Z,25.03
2018-04-07T08:49:54.958Z,19.87
2018-04-07T08:52:22.440Z,16.97
2018-04-07T08:54:49.915Z,20.10
2018-04-07T08:57:17.400Z,18.47
2018-04-07T08:59:44.889Z,17.93
2018-04-07T09:02:12.403Z,24.67
2018-04-07T09:04:39.902Z,17.30
2018-04-07T09:07:07.371Z,20.80
2018-04-07T09:09:34.835Z,27.20
2018-04-07T09:12:02.325Z,22.50
2018-04-07T09:14:29.811Z,25.70
2018-04-07T09:16:57.316Z,19.93
2018-04-07T09:19:24.892Z,17.17
2018-04-07T09:21:53.143Z,17.83
2018-04-07T09:24:20.630Z,25.17
2018-04-07T09:26:48.127Z,19.47
2018-04-07T09:29:15.590Z,23.60
2018-04-07T09:31:43.151Z,19.77
2018-04-07T09:34:10.729Z,18.50
2018-04-07T09:36:38.192Z,18.00
2018-04-07T09:39:06.448Z,21.37
2018-04-07T09:41:33.956Z,25.50
2018-04-07T09:44:01.464Z,17.23
2018-04-07T09:46:28.940Z,16.13
2018-04-07T09:48:56.424Z,29.60
2018-04-07T09:51:23.935Z,17.37
2018-04-07T09:53:51.392Z,15.63
2018-04-07T09:56:18.969Z,15.20
2018-04-07T09:58:46.822Z,17.13
2018-04-07T10:01:14.464Z,20.17
2018-04-07T10:03:41.964Z,16.17
2018-04-07T10:06:09.676Z,23.43
2018-04-07T10:08:37.222Z,17.03
2018-04-07T10:11:04.820Z,17.50
2018-04-07T10:13:32.448Z,15.40
2018-04-07T10:16:00.932Z,19.80
2018-04-07T10:18:28.447Z,16.20
2018-04-07T10:20:55.907Z,21.57
2018-04-07T10:23:23.378Z,22.37
2018-04-07T10:25:50.844Z,16.40
2018-04-07T10:28:18.435Z,18.03
2018-04-07T10:30:45.903Z,21.93
2018-04-07T10:33:13.424Z,18.67
2018-04-07T10:35:40.989Z,15.70
2018-04-07T10:38:08.517Z,22.50
2018-04-07T10:40:36.144Z,18.43
2018-04-07T10:43:03.623Z,16.00
2018-04-07T10:45:31.080Z,13.60
2018-04-07T10:47:58.564Z,20.17
2018-04-07T10:50:26.036Z,22.97
2018-04-07T10:52:53.500Z,16.37
2018-04-07T10:55:20.988Z,18.63
2018-04-07T10:57:48.453Z,20.40
2018-04-07T11:00:15.960Z,22.47
2018-04-07T11:02:43.427Z,16.00
2018-04-07T11:05:10.923Z,15.20
2018-04-07T11:07:38.440Z,19.87
2018-04-07T11:10:05.919Z,17.53
2018-04-07T11:12:33.382Z,16.67
2018-04-07T11:15:00.881Z,17.00
2018-04-07T11:17:28.338Z,18.40
2018-04-07T11:19:55.802Z,16.17
2018-04-07T11:22:23.545Z,16.83
2018-04-07T11:24:50.987Z,12.07
2018-04-07T11:27:18.450Z,14.90
2018-04-07T11:29:45.936Z,18.90
2018-04-07T11:32:13.421Z,18.70
2018-04-07T11:34:40.924Z,13.27
2018-04-07T11:37:08.410Z,17.60
2018-04-07T11:39:35.882Z,13.47
2018-04-07T11:42:03.364Z,16.70
2018-04-07T11:44:30.838Z,13.70
2018-04-07T11:46:58.280Z,20.70
2018-04-07T11:49:25.755Z,15.17
2018-04-07T11:51:53.250Z,13.80
2018-04-07T11:54:20.752Z,15.40
2018-04-07T11:56:48.230Z,13.13
2018-04-07T11:59:15.681Z,13.50
2018-04-07T12:01:43.140Z,12.57
2018-04-07T12:04:10.607Z,14.73
2018-04-07T12:06:38.063Z,11.40
2018-04-07T12:09:06.492Z,12.33
2018-04-07T12:11:33.985Z,16.77
2018-04-07T12:14:01.435Z,10.60
2018-04-07T12:16:28.936Z,14.00
2018-04-07T12:18:56.462Z,13.13
2018-04-07T12:21:23.891Z,17.63
2018-04-07T12:23:51.348Z,15.00
2018-04-07T12:26:18.816Z,12.10
2018-04-07T12:28:46.291Z,13.77
2018-04-07T12:31:13.750Z,12.50
2018-04-07T12:33:41.207Z,12.63
2018-04-07T12:36:08.678Z,12.30
2018-04-07T12:38:36.138Z,10.70
2018-04-07T12:41:03.617Z,13.90
2018-04-07T12:43:31.159Z,26.80
2018-04-07T12:45:58.627Z,11.47
2018-04-07T12:48:26.111Z,18.03
2018-04-07T12:50:53.585Z,14.57
2018-04-07T12:53:21.072Z,17.00
2018-04-07T12:55:48.559Z,11.67
2018-04-07T12:58:16.038Z,10.67
2018-04-07T13:00:43.524Z,11.43
2018-04-07T13:03:11.004Z,9.03
2018-04-07T13:05:38.463Z,8.90
2018-04-07T13:08:05.916Z,8.40
2018-04-07T13:10:33.382Z,8.03
2018-04-07T13:13:00.875Z,8.60
2018-04-07T13:15:28.345Z,14.83
2018-04-07T13:17:55.808Z,9.00
2018-04-07T13:20:23.253Z,8.90
2018-04-07T13:22:50.737Z,8.30
2018-04-07T13:25:18.235Z,8.10
2018-04-07T13:27:45.716Z,8.27
2018-04-07T13:30:13.182Z,8.97
2018-04-07T13:32:40.673Z,7.43
2018-04-07T13:35:08.134Z,8.70
2018-04-07T13:37:35.592Z,8.40
2018-04-07T13:40:03.062Z,8.97
2018-04-07T13:42:30.513Z,8.80
2018-04-07T13:44:57.989Z,14.07
2018-04-07T13:47:25.456Z,8.00
2018-04-07T13:49:52.935Z,10.43
2018-04-07T13:52:20.413Z,9.43
2018-04-07T13:54:47.966Z,8.80
2018-04-07T13:57:15.407Z,8.20
2018-04-07T13:59:42.912Z,9.33
2018-04-07T14:02:10.377Z,29.90
2018-04-07T14:04:37.831Z,9.10
2018-04-07T14:07:05.347Z,10.87
2018-04-07T14:09:32.840Z,8.57
2018-04-07T14:12:00.298Z,9.00
2018-04-07T14:14:27.782Z,7.97
2018-04-07T14:16:55.303Z,8.03
2018-04-07T14:19:22.821Z,9.43
2018-04-07T14:21:50.294Z,9.40
2018-04-07T14:24:17.844Z,12.40
2018-04-07T14:26:45.294Z,14.40
2018-04-07T14:29:12.764Z,9.33
2018-04-07T14:31:40.221Z,10.70
2018-04-07T14:34:07.695Z,10.10
2018-04-07T14:36:35.160Z,10.67
2018-04-07T14:39:02.628Z,11.23
2018-04-07T14:41:30.127Z,14.50
2018-04-07T14:43:57.584Z,15.50
2018-04-07T14:46:25.071Z,11.17
2018-04-07T14:48:52.528Z,15.47
2018-04-07T14:51:20.064Z,14.67
2018-04-07T14:53:47.540Z,13.33
2018-04-07T14:56:15.012Z,14.63
2018-04-07T14:58:42.550Z,13.37
2018-04-07T15:01:10.005Z,9.83
2018-04-07T15:03:37.472Z,14.00
2018-04-07T15:06:04.943Z,12.93
2018-04-07T15:08:32.460Z,12.20
2018-04-07T15:10:59.944Z,21.67
2018-04-07T15:13:27.462Z,16.47
2018-04-07T15:15:54.942Z,16.33
2018-04-07T15:18:22.419Z,15.20
2018-04-07T15:20:49.877Z,16.50
2018-04-07T15:23:17.353Z,14.40
2018-04-07T15:25:44.832Z,15.90
2018-04-07T15:28:12.529Z,16.27
2018-04-07T15:30:39.998Z,14.90
2018-04-07T15:33:07.469Z,16.87
2018-04-07T15:35:34.990Z,17.40
2018-04-07T15:38:02.997Z,16.83
2018-04-07T15:40:30.471Z,18.13
2018-04-07T15:42:57.934Z,17.97
2018-04-07T15:45:25.437Z,19.97
2018-04-07T15:47:52.935Z,16.63
2018-04-07T15:50:20.420Z,21.80
2018-04-07T15:52:47.895Z,17.60
2018-04-07T15:55:15.393Z,16.97
2018-04-07T15:57:42.913Z,15.67
2018-04-07T16:00:10.463Z,26.83
2018-04-07T16:02:37.953Z,19.53
2018-04-07T16:05:05.491Z,15.70
2018-04-07T16:07:33.289Z,18.43
2018-04-07T16:10:00.783Z,18.57
2018-04-07T16:12:29.364Z,19.30
2018-04-07T16:14:56.834Z,17.60
2018-04-07T16:17:24.334Z,21.43
2018-04-07T16:19:51.833Z,18.00
2018-04-07T16:22:19.329Z,18.83
2018-04-07T16:24:47.421Z,19.87
2018-04-07T16:27:14.916Z,22.97
2018-04-07T16:29:42.416Z,21.87
2018-04-07T16:32:09.956Z,30.03
2018-04-07T16:34:37.440Z,20.83
2018-04-07T16:37:04.953Z,27.30
2018-04-07T16:39:32.448Z,27.23
2018-04-07T16:42:00.039Z,23.90
2018-04-07T16:44:27.521Z,24.00
2018-04-07T16:46:55.021Z,34.40
2018-04-07T16:49:22.535Z,27.30
2018-04-07T16:51:50.112Z,30.40
2018-04-07T16:54:17.578Z,28.30
2018-04-07T16:56:45.087Z,28.70
2018-04-07T16:59:12.564Z,27.93
2018-04-07T17:01:40.140Z,28.03
2018-04-07T17:04:07.631Z,21.33
2018-04-07T17:06:35.145Z,27.93
2018-04-07T17:09:02.655Z,26.77
2018-04-07T17:11:30.147Z,27.27
2018-04-07T17:13:57.984Z,26.03
2018-04-07T17:16:25.471Z,26.17
2018-04-07T17:18:52.968Z,30.00
2018-04-07T17:21:20.531Z,22.87
2018-04-07T17:23:48.064Z,26.30
2018-04-07T17:26:15.543Z,27.57
2018-04-07T17:28:43.017Z,28.17
2018-04-07T17:31:10.496Z,35.47
2018-04-07T17:33:37.980Z,26.90
2018-04-07T17:36:05.528Z,28.00
2018-04-07T17:38:33.239Z,31.37
2018-04-07T17:41:01.996Z,29.70
2018-04-07T17:43:29.593Z,27.40
2018-04-07T17:45:57.087Z,27.37
2018-04-07T17:48:24.614Z,30.43
2018-04-07T17:50:52.080Z,31.33
2018-04-07T17:53:19.578Z,29.30
2018-04-07T17:55:47.073Z,26.33
2018-04-07T17:58:14.575Z,27.57
2018-04-07T18:00:42.075Z,30.23
2018-04-07T18:03:09.561Z,27.77
2018-04-07T18:05:37.139Z,33.87
2018-04-07T18:08:04.593Z,28.00
2018-04-07T18:10:32.099Z,33.43
2018-04-07T18:12:59.627Z,29.77
2018-04-07T18:15:27.157Z,30.90
2018-04-07T18:17:54.639Z,27.70
2018-04-07T18:20:22.112Z,26.97
2018-04-07T18:22:50.271Z,25.20
2018-04-07T18:25:17.843Z,31.40
2018-04-07T18:27:45.330Z,27.77
2018-04-07T18:30:12.821Z,25.50
2018-04-07T18:32:40.320Z,32.10
2018-04-07T18:35:07.803Z,29.20
2018-04-07T18:37:35.275Z,30.23
2018-04-07T18:40:02.786Z,33.60
2018-04-07T18:42:30.276Z,30.13
2018-04-07T18:44:57.739Z,31.97
2018-04-07T18:47:25.249Z,28.83
2018-04-07T18:49:52.779Z,32.13
2018-04-07T18:52:20.248Z,33.20
2018-04-07T18:54:47.740Z,32.27
2018-04-07T18:57:15.222Z,29.30
2018-04-07T18:59:42.730Z,27.83
2018-04-07T19:02:10.227Z,34.10
2018-04-07T19:04:37.685Z,31.40
2018-04-07T19:07:05.177Z,34.10
2018-04-07T19:09:32.715Z,30.97
2018-04-07T19:12:00.193Z,38.77
2018-04-07T19:14:27.709Z,35.87
2018-04-07T19:16:55.194Z,36.00
2018-04-07T19:19:22.667Z,33.60
2018-04-07T19:21:50.174Z,32.80
2018-04-07T19:24:17.993Z,32.97
2018-04-07T19:26:45.993Z,37.90
2018-04-07T19:29:14.923Z,36.33
2018-04-07T19:31:42.397Z,37.13
2018-04-07T19:34:09.871Z,36.23
2018-04-07T19:36:37.379Z,39.33
2018-04-07T19:39:04.925Z,36.03
2018-04-07T19:41:32.428Z,36.23
2018-04-07T19:43:59.961Z,36.63
2018-04-07T19:46:27.434Z,42.93
2018-04-07T19:48:54.928Z,36.30
2018-04-07T19:51:22.461Z,36.93
2018-04-07T19:53:49.921Z,44.90
2018-04-07T19:56:17.443Z,38.73
2018-04-07T19:58:44.940Z,39.43
2018-04-07T20:01:12.408Z,41.07
2018-04-07T20:03:39.923Z,38.20
2018-04-07T20:06:07.393Z,38.97
2018-04-07T20:08:34.893Z,39.93
2018-04-07T20:11:02.359Z,47.37
2018-04-07T20:13:30.147Z,42.10
2018-04-07T20:15:57.647Z,41.00
2018-04-07T20:18:25.111Z,28.97
2018-04-07T20:20:52.571Z,34.90
2018-04-07T20:23:20.029Z,46.37
2018-04-07T20:25:47.483Z,34.60
2018-04-07T20:28:15.013Z,32.50
2018-04-07T20:30:42.479Z,43.60
2018-04-07T20:33:09.961Z,34.50
2018-04-07T20:35:37.449Z,33.80
2018-04-07T20:38:04.909Z,38.73
2018-04-07T20:40:32.358Z,38.23
2018-04-07T20:42:59.855Z,41.03
2018-04-07T20:45:27.348Z,39.50
2018-04-07T20:47:54.841Z,38.70
2018-04-07T20:50:22.325Z,48.80
2018-04-07T20:52:49.824Z,37.60
2018-04-07T20:55:17.318Z,42.43
2018-04-07T20:57:44.803Z,41.07
2018-04-07T21:00:12.263Z,44.40
2018-04-07T21:02:39.755Z,35.47
2018-04-07T21:05:07.235Z,40.17
2018-04-07T21:07:34.800Z,41.60
2018-04-07T21:10:02.272Z,43.60
2018-04-07T21:12:29.758Z,40.47
2018-04-07T21:14:57.254Z,40.23
2018-04-07T21:17:24.738Z,40.27
2018-04-07T21:19:52.455Z,40.87
2018-04-07T21:22:19.928Z,44.70
2018-04-07T21:24:47.419Z,39.93
2018-04-07T21:27:14.884Z,40.47
2018-04-07T21:29:42.332Z,49.50
2018-04-07T21:32:09.797Z,41.97
2018-04-07T21:34:37.292Z,41.93
2018-04-07T21:37:04.886Z,48.77
2018-04-07T21:39:32.369Z,41.03
2018-04-07T21:41:59.824Z,42.70
2018-04-07T21:44:27.336Z,43.50
2018-04-07T21:46:54.795Z,39.43
2018-04-07T21:49:22.307Z,43.70
2018-04-07T21:51:49.779Z,49.40
2018-04-07T21:54:17.262Z,40.50
2018-04-07T21:56:44.765Z,43.93
2018-04-07T21:59:12.259Z,40.47
2018-04-07T22:01:39.773Z,44.80
2018-04-07T22:04:07.283Z,42.13
2018-04-07T22:06:34.739Z,42.83
2018-04-07T22:09:03.240Z,39.67
2018-04-07T22:11:30.711Z,45.40
2018-04-07T22:13:58.160Z,41.23
2018-04-07T22:16:25.649Z,43.50
2018-04-07T22:18:53.125Z,44.50
2018-04-07T22:21:20.584Z,38.10
2018-04-07T22:23:48.061Z,42.40
2018-04-07T22:26:15.540Z,38.93
2018-04-07T22:28:43.079Z,38.40
2018-04-07T22:31:10.549Z,42.40
2018-04-07T22:33:38.036Z,43.80
2018-04-07T22:36:05.581Z,42.97
2018-04-07T22:38:33.024Z,42.17
2018-04-07T22:41:00.494Z,43.20
2018-04-07T22:43:27.967Z,39.03
2018-04-07T22:45:55.459Z,41.30
2018-04-07T22:48:22.915Z,41.60
2018-04-07T22:50:50.389Z,40.97
2018-04-07T22:53:17.864Z,43.97
2018-04-07T22:55:45.350Z,42.10
2018-04-07T22:58:12.833Z,46.97
2018-04-07T23:00:40.290Z,40.23
2018-04-07T23:03:07.787Z,40.60
2018-04-07T23:05:35.272Z,43.53
2018-04-07T23:08:02.758Z,43.73
2018-04-07T23:10:30.219Z,43.83
2018-04-07T23:12:57.681Z,42.23
2018-04-07T23:15:25.159Z,42.47
2018-04-07T23:17:52.633Z,39.27
2018-04-07T23:20:20.187Z,44.17
2018-04-07T23:22:47.670Z,44.43
2018-04-07T23:25:15.164Z,46.67
2018-04-07T23:27:42.634Z,45.43
2018-04-07T23:30:10.120Z,44.07
2018-04-07T23:32:37.623Z,44.50
2018-04-07T23:35:05.103Z,44.53
2018-04-07T23:37:32.581Z,43.23
2018-04-07T23:40:00.041Z,47.43
2018-04-07T23:42:27.583Z,47.87
2018-04-07T23:44:55.046Z,47.40
2018-04-07T23:47:22.574Z,47.60
2018-04-07T23:49:50.048Z,59.00
2018-04-07T23:52:17.526Z,48.00
2018-04-07T23:54:44.995Z,45.57
2018-04-07T23:57:12.452Z,46.70
2018-04-07T23:59:39.915Z,44.40
